sensor_id;sensor_type;location;lat;lon;timestamp;pressure;altitude;pressure_sealevel;temperature;humidity
69411;BME280;56604;48.652;9.194;2023-07-16T00:02:21;96124.13;;;20.53;97.08
69411;BME280;56604;48.652;9.194;2023-07-16T00:04:46;96115.63;;;20.51;96.93
69411;BME280;56604;48.652;9.194;2023-07-16T00:07:11;96127.41;;;20.50;95.10
69411;BME280;56604;48.652;9.194;2023-07-16T00:09:36;96121.94;;;20.38;94.30
69411;BME280;56604;48.652;9.194;2023-07-16T00:12:02;96126.94;;;20.39;94.02
69411;BME280;56604;48.652;9.194;2023-07-16T00:14:28;96132.91;;;20.45;93.83
69411;BME280;56604;48.652;9.194;2023-07-16T00:16:53;96148.63;;;20.38;93.60
69411;BME280;56604;48.652;9.194;2023-07-16T00:19:18;96142.81;;;20.36;94.04
69411;BME280;56604;48.652;9.194;2023-07-16T00:21:44;96130.88;;;20.51;94.46
69411;BME280;56604;48.652;9.194;2023-07-16T00:24:09;96124.91;;;20.45;94.72
69411;BME280;56604;48.652;9.194;2023-07-16T00:26:34;96123.63;;;20.51;95.26
69411;BME280;56604;48.652;9.194;2023-07-16T00:29:00;96146.75;;;20.47;93.98
69411;BME280;56604;48.652;9.194;2023-07-16T00:31:25;96146.75;;;20.47;92.88
69411;BME280;56604;48.652;9.194;2023-07-16T00:33:50;96154.75;;;20.47;93.29
69411;BME280;56604;48.652;9.194;2023-07-16T00:36:16;96140.44;;;20.43;93.11
69411;BME280;56604;48.652;9.194;2023-07-16T00:38:41;96143.09;;;20.52;92.77
69411;BME280;56604;48.652;9.194;2023-07-16T00:41:07;96160.38;;;20.37;93.17
69411;BME280;56604;48.652;9.194;2023-07-16T00:43:33;96161.50;;;20.18;93.42
69411;BME280;56604;48.652;9.194;2023-07-16T00:45:58;96167.59;;;20.19;94.09
69411;BME280;56604;48.652;9.194;2023-07-16T00:48:24;96152.38;;;20.19;94.58
69411;BME280;56604;48.652;9.194;2023-07-16T00:50:51;96157.41;;;20.12;95.01
69411;BME280;56604;48.652;9.194;2023-07-16T00:53:17;96167.09;;;19.91;96.45
69411;BME280;56604;48.652;9.194;2023-07-16T00:55:43;96170.84;;;19.90;97.36
69411;BME280;56604;48.652;9.194;2023-07-16T00:58:08;96152.78;;;19.78;98.09
69411;BME280;56604;48.652;9.194;2023-07-16T01:00:35;96153.44;;;19.84;97.82
69411;BME280;56604;48.652;9.194;2023-07-16T01:03:06;96164.25;;;19.79;97.96
69411;BME280;56604;48.652;9.194;2023-07-16T01:05:40;96172.53;;;19.77;97.73
69411;BME280;56604;48.652;9.194;2023-07-16T01:08:09;96172.69;;;19.81;97.82
69411;BME280;56604;48.652;9.194;2023-07-16T01:10:39;96175.69;;;19.79;96.17
69411;BME280;56604;48.652;9.194;2023-07-16T01:13:05;96165.69;;;19.93;94.41
69411;BME280;56604;48.652;9.194;2023-07-16T01:15:30;96162.41;;;20.05;93.92
69411;BME280;56604;48.652;9.194;2023-07-16T01:17:56;96189.44;;;20.12;93.80
69411;BME280;56604;48.652;9.194;2023-07-16T01:20:21;96185.66;;;20.13;92.85
69411;BME280;56604;48.652;9.194;2023-07-16T01:23:08;96184.88;;;20.13;92.14
69411;BME280;56604;48.652;9.194;2023-07-16T01:31:28;96189.53;;;19.90;92.48
69411;BME280;56604;48.652;9.194;2023-07-16T01:33:54;96190.81;;;20.01;90.64
69411;BME280;56604;48.652;9.194;2023-07-16T01:36:22;96195.31;;;19.92;91.11
69411;BME280;56604;48.652;9.194;2023-07-16T01:38:51;96204.56;;;19.86;90.47
69411;BME280;56604;48.652;9.194;2023-07-16T01:41:16;96187.75;;;19.76;91.48
69411;BME280;56604;48.652;9.194;2023-07-16T01:43:41;96190.16;;;19.87;91.83
69411;BME280;56604;48.652;9.194;2023-07-16T01:46:07;96185.59;;;19.87;91.82
69411;BME280;56604;48.652;9.194;2023-07-16T01:48:36;96192.97;;;19.82;92.32
69411;BME280;56604;48.652;9.194;2023-07-16T01:51:03;96190.63;;;19.89;92.67
69411;BME280;56604;48.652;9.194;2023-07-16T01:53:28;96184.38;;;19.62;93.67
69411;BME280;56604;48.652;9.194;2023-07-16T01:55:54;96187.94;;;19.49;94.06
69411;BME280;56604;48.652;9.194;2023-07-16T01:58:19;96181.66;;;19.45;95.19
69411;BME280;56604;48.652;9.194;2023-07-16T02:00:45;96176.66;;;19.52;94.46
69411;BME280;56604;48.652;9.194;2023-07-16T02:03:11;96187.06;;;19.62;93.65
69411;BME280;56604;48.652;9.194;2023-07-16T02:05:36;96176.56;;;19.66;92.79
69411;BME280;56604;48.652;9.194;2023-07-16T02:08:01;96173.22;;;19.60;90.64
69411;BME280;56604;48.652;9.194;2023-07-16T02:10:27;96174.00;;;19.61;89.52
69411;BME280;56604;48.652;9.194;2023-07-16T02:12:52;96161.41;;;19.44;87.94
69411;BME280;56604;48.652;9.194;2023-07-16T02:15:18;96174.13;;;19.47;86.83
69411;BME280;56604;48.652;9.194;2023-07-16T02:17:44;96179.38;;;19.29;86.70
69411;BME280;56604;48.652;9.194;2023-07-16T02:20:10;96200.09;;;19.32;86.34
69411;BME280;56604;48.652;9.194;2023-07-16T02:22:36;96202.41;;;19.25;86.99
69411;BME280;56604;48.652;9.194;2023-07-16T02:25:02;96181.81;;;19.17;88.00
69411;BME280;56604;48.652;9.194;2023-07-16T02:27:28;96184.69;;;19.29;85.85
69411;BME280;56604;48.652;9.194;2023-07-16T02:29:54;96164.59;;;19.23;85.52
69411;BME280;56604;48.652;9.194;2023-07-16T02:32:19;96190.09;;;19.07;84.38
69411;BME280;56604;48.652;9.194;2023-07-16T02:34:45;96239.72;;;19.03;84.79
69411;BME280;56604;48.652;9.194;2023-07-16T02:37:10;96228.22;;;18.94;85.30
69411;BME280;56604;48.652;9.194;2023-07-16T02:39:35;96217.69;;;18.88;86.33
69411;BME280;56604;48.652;9.194;2023-07-16T02:42:01;96216.47;;;18.95;85.74
69411;BME280;56604;48.652;9.194;2023-07-16T02:44:26;96222.06;;;18.84;85.96
69411;BME280;56604;48.652;9.194;2023-07-16T02:46:51;96228.94;;;18.85;85.09
69411;BME280;56604;48.652;9.194;2023-07-16T02:49:17;96231.34;;;18.73;85.25
69411;BME280;56604;48.652;9.194;2023-07-16T02:51:42;96236.81;;;18.54;84.98
69411;BME280;56604;48.652;9.194;2023-07-16T02:54:07;96241.84;;;18.56;84.85
69411;BME280;56604;48.652;9.194;2023-07-16T02:56:33;96245.22;;;18.48;85.17
69411;BME280;56604;48.652;9.194;2023-07-16T02:59:01;96233.59;;;18.30;85.95
69411;BME280;56604;48.652;9.194;2023-07-16T03:01:27;96232.34;;;18.27;85.97
69411;BME280;56604;48.652;9.194;2023-07-16T03:03:52;96236.56;;;18.28;85.92
69411;BME280;56604;48.652;9.194;2023-07-16T03:06:17;96230.06;;;18.20;85.93
69411;BME280;56604;48.652;9.194;2023-07-16T03:08:43;96216.56;;;18.17;84.42
69411;BME280;56604;48.652;9.194;2023-07-16T03:11:10;96210.75;;;18.15;83.80
69411;BME280;56604;48.652;9.194;2023-07-16T03:13:36;96223.38;;;18.23;83.94
69411;BME280;56604;48.652;9.194;2023-07-16T03:16:01;96240.53;;;18.17;83.39
69411;BME280;56604;48.652;9.194;2023-07-16T03:18:30;96257.69;;;18.11;84.42
69411;BME280;56604;48.652;9.194;2023-07-16T03:20:56;96271.06;;;18.06;83.98
69411;BME280;56604;48.652;9.194;2023-07-16T03:23:22;96292.31;;;17.78;84.64
69411;BME280;56604;48.652;9.194;2023-07-16T03:25:48;96281.09;;;17.81;85.99
69411;BME280;56604;48.652;9.194;2023-07-16T03:28:13;96265.94;;;17.95;85.74
69411;BME280;56604;48.652;9.194;2023-07-16T03:30:38;96271.06;;;17.78;87.53
69411;BME280;56604;48.652;9.194;2023-07-16T03:33:04;96268.72;;;17.90;87.76
69411;BME280;56604;48.652;9.194;2023-07-16T03:35:29;96268.13;;;17.93;87.09
69411;BME280;56604;48.652;9.194;2023-07-16T03:37:55;96262.00;;;17.93;86.83
69411;BME280;56604;48.652;9.194;2023-07-16T03:40:24;96279.75;;;17.97;86.51
69411;BME280;56604;48.652;9.194;2023-07-16T03:42:50;96279.16;;;18.01;85.69
69411;BME280;56604;48.652;9.194;2023-07-16T03:45:15;96303.09;;;18.01;85.33
69411;BME280;56604;48.652;9.194;2023-07-16T03:47:40;96308.91;;;18.03;85.60
69411;BME280;56604;48.652;9.194;2023-07-16T03:50:06;96318.19;;;18.05;85.29
69411;BME280;56604;48.652;9.194;2023-07-16T03:52:32;96292.28;;;18.11;84.65
69411;BME280;56604;48.652;9.194;2023-07-16T03:54:57;96315.13;;;18.12;83.73
69411;BME280;56604;48.652;9.194;2023-07-16T03:57:22;96315.03;;;18.17;84.28
69411;BME280;56604;48.652;9.194;2023-07-16T03:59:48;96326.88;;;18.25;84.52
69411;BME280;56604;48.652;9.194;2023-07-16T04:02:13;96327.66;;;18.25;84.29
69411;BME280;56604;48.652;9.194;2023-07-16T04:04:38;96322.72;;;18.32;83.33
69411;BME280;56604;48.652;9.194;2023-07-16T04:07:04;96325.09;;;18.34;84.24
69411;BME280;56604;48.652;9.194;2023-07-16T04:09:29;96310.59;;;18.26;83.97
69411;BME280;56604;48.652;9.194;2023-07-16T04:11:54;96296.00;;;18.24;83.44
69411;BME280;56604;48.652;9.194;2023-07-16T04:14:20;96289.38;;;18.21;84.94
69411;BME280;56604;48.652;9.194;2023-07-16T04:16:45;96288.09;;;18.18;85.29
69411;BME280;56604;48.652;9.194;2023-07-16T04:19:10;96301.03;;;18.11;84.61
69411;BME280;56604;48.652;9.194;2023-07-16T04:21:36;96300.84;;;18.08;85.18
69411;BME280;56604;48.652;9.194;2023-07-16T04:24:04;96313.06;;;18.09;85.61
69411;BME280;56604;48.652;9.194;2023-07-16T04:26:30;96322.97;;;17.89;86.12
69411;BME280;56604;48.652;9.194;2023-07-16T04:28:56;96329.34;;;17.74;87.16
69411;BME280;56604;48.652;9.194;2023-07-16T04:31:21;96330.13;;;17.75;88.36
69411;BME280;56604;48.652;9.194;2023-07-16T04:33:46;96350.25;;;17.81;88.56
69411;BME280;56604;48.652;9.194;2023-07-16T04:36:11;96345.75;;;17.82;88.39
69411;BME280;56604;48.652;9.194;2023-07-16T04:38:37;96361.78;;;17.58;89.30
69411;BME280;56604;48.652;9.194;2023-07-16T04:41:02;96368.63;;;17.96;88.47
69411;BME280;56604;48.652;9.194;2023-07-16T04:43:27;96358.78;;;18.11;88.32
69411;BME280;56604;48.652;9.194;2023-07-16T04:45:53;96357.44;;;18.27;88.12
69411;BME280;56604;48.652;9.194;2023-07-16T04:48:18;96349.63;;;18.17;89.03
69411;BME280;56604;48.652;9.194;2023-07-16T04:50:43;96345.47;;;18.11;89.10
69411;BME280;56604;48.652;9.194;2023-07-16T04:53:08;96361.38;;;18.16;88.84
69411;BME280;56604;48.652;9.194;2023-07-16T04:55:38;96345.19;;;18.26;88.49
69411;BME280;56604;48.652;9.194;2023-07-16T04:58:06;96363.13;;;18.34;88.17
69411;BME280;56604;48.652;9.194;2023-07-16T05:00:32;96377.06;;;17.98;89.40
69411;BME280;56604;48.652;9.194;2023-07-16T05:02:58;96370.59;;;18.05;90.16
69411;BME280;56604;48.652;9.194;2023-07-16T05:05:24;96378.38;;;18.15;89.92
69411;BME280;56604;48.652;9.194;2023-07-16T05:07:49;96377.63;;;18.28;88.19
69411;BME280;56604;48.652;9.194;2023-07-16T05:10:14;96374.38;;;18.31;87.63
69411;BME280;56604;48.652;9.194;2023-07-16T05:12:40;96382.88;;;18.33;87.27
69411;BME280;56604;48.652;9.194;2023-07-16T05:15:05;96380.50;;;18.46;86.78
69411;BME280;56604;48.652;9.194;2023-07-16T05:17:31;96387.97;;;18.43;86.64
69411;BME280;56604;48.652;9.194;2023-07-16T05:19:56;96395.56;;;18.23;86.47
69411;BME280;56604;48.652;9.194;2023-07-16T05:22:21;96381.25;;;18.32;87.04
69411;BME280;56604;48.652;9.194;2023-07-16T05:24:46;96373.59;;;18.45;85.85
69411;BME280;56604;48.652;9.194;2023-07-16T05:27:12;96369.84;;;18.46;85.26
69411;BME280;56604;48.652;9.194;2023-07-16T05:29:37;96370.44;;;18.56;85.57
69411;BME280;56604;48.652;9.194;2023-07-16T05:32:03;96373.00;;;18.48;85.41
69411;BME280;56604;48.652;9.194;2023-07-16T05:34:28;96372.59;;;18.40;85.16
69411;BME280;56604;48.652;9.194;2023-07-16T05:36:54;96384.69;;;18.05;87.36
69411;BME280;56604;48.652;9.194;2023-07-16T05:39:20;96393.09;;;18.26;85.83
69411;BME280;56604;48.652;9.194;2023-07-16T05:41:46;96400.41;;;18.62;83.98
69411;BME280;56604;48.652;9.194;2023-07-16T05:44:11;96407.28;;;18.35;84.94
69411;BME280;56604;48.652;9.194;2023-07-16T05:46:37;96418.53;;;18.32;86.47
69411;BME280;56604;48.652;9.194;2023-07-16T05:49:02;96394.00;;;18.91;84.31
69411;BME280;56604;48.652;9.194;2023-07-16T05:51:27;96389.84;;;19.35;82.16
69411;BME280;56604;48.652;9.194;2023-07-16T05:53:53;96384.41;;;19.62;80.33
69411;BME280;56604;48.652;9.194;2023-07-16T05:56:18;96374.53;;;20.08;77.52
69411;BME280;56604;48.652;9.194;2023-07-16T05:58:43;96379.78;;;20.21;76.35
69411;BME280;56604;48.652;9.194;2023-07-16T06:01:09;96372.03;;;20.51;74.73
69411;BME280;56604;48.652;9.194;2023-07-16T06:03:34;96386.69;;;20.54;73.98
69411;BME280;56604;48.652;9.194;2023-07-16T06:05:59;96381.13;;;20.10;74.33
69411;BME280;56604;48.652;9.194;2023-07-16T06:08:24;96390.69;;;19.80;76.35
69411;BME280;56604;48.652;9.194;2023-07-16T06:10:50;96398.03;;;19.74;76.54
69411;BME280;56604;48.652;9.194;2023-07-16T06:13:16;96406.97;;;19.70;76.46
69411;BME280;56604;48.652;9.194;2023-07-16T06:15:41;96406.53;;;19.63;77.21
69411;BME280;56604;48.652;9.194;2023-07-16T06:18:06;96413.94;;;19.29;78.13
69411;BME280;56604;48.652;9.194;2023-07-16T06:20:32;96420.63;;;19.18;79.25
69411;BME280;56604;48.652;9.194;2023-07-16T06:22:57;96405.06;;;19.34;78.95
69411;BME280;56604;48.652;9.194;2023-07-16T06:25:23;96399.94;;;19.01;80.53
69411;BME280;56604;48.652;9.194;2023-07-16T06:27:48;96402.50;;;19.29;79.77
69411;BME280;56604;48.652;9.194;2023-07-16T06:30:13;96407.41;;;18.99;80.54
69411;BME280;56604;48.652;9.194;2023-07-16T06:32:39;96401.38;;;19.21;80.25
69411;BME280;56604;48.652;9.194;2023-07-16T06:35:04;96397.00;;;19.25;79.81
69411;BME280;56604;48.652;9.194;2023-07-16T06:37:29;96414.31;;;18.86;82.22
69411;BME280;56604;48.652;9.194;2023-07-16T06:39:55;96401.16;;;19.18;82.28
69411;BME280;56604;48.652;9.194;2023-07-16T06:42:20;96384.38;;;19.53;81.59
69411;BME280;56604;48.652;9.194;2023-07-16T06:44:45;96387.81;;;19.54;81.31
69411;BME280;56604;48.652;9.194;2023-07-16T06:47:11;96386.00;;;20.08;79.26
69411;BME280;56604;48.652;9.194;2023-07-16T06:49:36;96378.88;;;20.35;76.42
69411;BME280;56604;48.652;9.194;2023-07-16T06:52:01;96394.25;;;20.60;75.14
69411;BME280;56604;48.652;9.194;2023-07-16T06:54:27;96401.47;;;21.34;73.07
69411;BME280;56604;48.652;9.194;2023-07-16T06:56:53;96417.88;;;21.50;71.36
69411;BME280;56604;48.652;9.194;2023-07-16T06:59:18;96422.25;;;21.81;69.58
69411;BME280;56604;48.652;9.194;2023-07-16T07:01:43;96418.47;;;21.82;69.23
69411;BME280;56604;48.652;9.194;2023-07-16T07:04:09;96419.13;;;21.62;69.72
69411;BME280;56604;48.652;9.194;2023-07-16T07:06:34;96418.41;;;23.11;65.08
69411;BME280;56604;48.652;9.194;2023-07-16T07:08:59;96408.44;;;24.90;59.79
69411;BME280;56604;48.652;9.194;2023-07-16T07:11:24;96404.34;;;25.86;56.41
69411;BME280;56604;48.652;9.194;2023-07-16T07:13:51;96405.56;;;26.80;53.06
69411;BME280;56604;48.652;9.194;2023-07-16T07:16:17;96410.06;;;27.62;50.50
69411;BME280;56604;48.652;9.194;2023-07-16T07:18:42;96405.03;;;26.74;51.66
69411;BME280;56604;48.652;9.194;2023-07-16T07:21:08;96404.72;;;27.11;51.38
69411;BME280;56604;48.652;9.194;2023-07-16T07:23:33;96394.78;;;28.78;46.70
69411;BME280;56604;48.652;9.194;2023-07-16T07:25:58;96391.56;;;29.22;46.27
69411;BME280;56604;48.652;9.194;2023-07-16T07:28:25;96400.50;;;28.27;47.32
69411;BME280;56604;48.652;9.194;2023-07-16T07:30:50;96411.03;;;29.04;46.77
69411;BME280;56604;48.652;9.194;2023-07-16T07:33:15;96410.91;;;29.54;42.58
69411;BME280;56604;48.652;9.194;2023-07-16T07:35:41;96409.47;;;29.94;41.78
69411;BME280;56604;48.652;9.194;2023-07-16T07:38:06;96424.00;;;30.50;41.87
69411;BME280;56604;48.652;9.194;2023-07-16T07:40:31;96419.31;;;30.46;41.26
69411;BME280;56604;48.652;9.194;2023-07-16T07:42:57;96418.31;;;29.87;42.62
69411;BME280;56604;48.652;9.194;2023-07-16T07:45:23;96422.50;;;29.51;42.65
69411;BME280;56604;48.652;9.194;2023-07-16T07:47:49;96426.97;;;29.09;44.27
69411;BME280;56604;48.652;9.194;2023-07-16T07:50:14;96425.41;;;30.77;41.24
69411;BME280;56604;48.652;9.194;2023-07-16T07:52:39;96422.13;;;31.71;39.54
69411;BME280;56604;48.652;9.194;2023-07-16T07:55:05;96429.13;;;29.23;41.16
69411;BME280;56604;48.652;9.194;2023-07-16T07:57:30;96423.47;;;28.17;42.65
69411;BME280;56604;48.652;9.194;2023-07-16T07:59:55;96418.56;;;29.14;40.32
69411;BME280;56604;48.652;9.194;2023-07-16T08:02:24;96435.50;;;30.02;40.23
69411;BME280;56604;48.652;9.194;2023-07-16T08:04:54;96442.72;;;31.10;38.64
69411;BME280;56604;48.652;9.194;2023-07-16T08:07:20;96433.44;;;31.11;36.57
69411;BME280;56604;48.652;9.194;2023-07-16T08:09:46;96434.41;;;31.40;37.02
69411;BME280;56604;48.652;9.194;2023-07-16T08:12:12;96433.38;;;31.07;37.07
69411;BME280;56604;48.652;9.194;2023-07-16T08:14:37;96448.81;;;28.97;40.44
69411;BME280;56604;48.652;9.194;2023-07-16T08:17:03;96448.81;;;28.97;40.15
69411;BME280;56604;48.652;9.194;2023-07-16T08:19:28;96444.34;;;28.59;41.98
69411;BME280;56604;48.652;9.194;2023-07-16T08:21:53;96445.47;;;27.06;43.47
69411;BME280;56604;48.652;9.194;2023-07-16T08:24:19;96435.16;;;27.63;42.96
69411;BME280;56604;48.652;9.194;2023-07-16T08:26:44;96429.53;;;27.32;43.54
69411;BME280;56604;48.652;9.194;2023-07-16T08:29:10;96415.84;;;27.80;43.57
69411;BME280;56604;48.652;9.194;2023-07-16T08:31:35;96414.91;;;27.72;42.48
69411;BME280;56604;48.652;9.194;2023-07-16T08:34:00;96400.50;;;29.26;40.79
69411;BME280;56604;48.652;9.194;2023-07-16T08:36:26;96409.81;;;29.28;40.89
69411;BME280;56604;48.652;9.194;2023-07-16T08:38:51;96414.81;;;29.56;39.63
69411;BME280;56604;48.652;9.194;2023-07-16T08:41:16;96422.50;;;29.51;39.68
69411;BME280;56604;48.652;9.194;2023-07-16T08:43:45;96432.28;;;29.89;39.79
69411;BME280;56604;48.652;9.194;2023-07-16T08:46:11;96434.66;;;28.81;40.58
69411;BME280;56604;48.652;9.194;2023-07-16T08:48:36;96436.56;;;28.57;41.18
69411;BME280;56604;48.652;9.194;2023-07-16T08:51:02;96432.03;;;29.68;40.65
69411;BME280;56604;48.652;9.194;2023-07-16T08:53:29;96426.31;;;30.47;37.66
69411;BME280;56604;48.652;9.194;2023-07-16T08:55:55;96423.59;;;31.58;36.50
69411;BME280;56604;48.652;9.194;2023-07-16T08:58:23;96428.63;;;30.90;35.59
69411;BME280;56604;48.652;9.194;2023-07-16T09:00:48;96430.41;;;31.27;34.76
69411;BME280;56604;48.652;9.194;2023-07-16T09:03:14;96425.75;;;30.72;35.47
69411;BME280;56604;48.652;9.194;2023-07-16T09:05:42;96437.00;;;32.06;35.37
69411;BME280;56604;48.652;9.194;2023-07-16T09:08:07;96447.00;;;30.63;36.74
69411;BME280;56604;48.652;9.194;2023-07-16T09:10:33;96448.00;;;30.10;37.51
69411;BME280;56604;48.652;9.194;2023-07-16T09:12:58;96445.69;;;30.09;37.81
69411;BME280;56604;48.652;9.194;2023-07-16T09:15:26;96450.31;;;30.83;37.89
69411;BME280;56604;48.652;9.194;2023-07-16T09:17:53;96437.97;;;30.96;36.50
69411;BME280;56604;48.652;9.194;2023-07-16T09:20:19;96438.72;;;30.93;36.28
69411;BME280;56604;48.652;9.194;2023-07-16T09:22:44;96436.91;;;31.81;35.76
69411;BME280;56604;48.652;9.194;2023-07-16T09:25:10;96439.34;;;32.04;35.29
69411;BME280;56604;48.652;9.194;2023-07-16T09:27:36;96444.16;;;31.48;34.92
69411;BME280;56604;48.652;9.194;2023-07-16T09:30:03;96429.41;;;31.53;36.10
69411;BME280;56604;48.652;9.194;2023-07-16T09:32:38;96434.41;;;31.47;34.93
69411;BME280;56604;48.652;9.194;2023-07-16T09:35:11;96433.88;;;30.68;35.18
69411;BME280;56604;48.652;9.194;2023-07-16T09:37:37;96440.25;;;29.48;38.50
69411;BME280;56604;48.652;9.194;2023-07-16T09:40:06;96441.38;;;28.67;38.94
69411;BME280;56604;48.652;9.194;2023-07-16T09:42:38;96440.66;;;28.47;38.20
69411;BME280;56604;48.652;9.194;2023-07-16T09:45:08;96434.22;;;29.58;36.85
69411;BME280;56604;48.652;9.194;2023-07-16T09:47:35;96431.03;;;29.53;38.01
69411;BME280;56604;48.652;9.194;2023-07-16T09:50:02;96425.72;;;30.28;36.71
69411;BME280;56604;48.652;9.194;2023-07-16T09:52:27;96429.13;;;28.31;37.72
69411;BME280;56604;48.652;9.194;2023-07-16T09:54:55;96439.06;;;29.16;40.60
69411;BME280;56604;48.652;9.194;2023-07-16T09:57:21;96434.59;;;28.54;37.76
69411;BME280;56604;48.652;9.194;2023-07-16T09:59:49;96432.53;;;28.05;39.03
69411;BME280;56604;48.652;9.194;2023-07-16T10:02:17;96422.59;;;29.28;38.04
69411;BME280;56604;48.652;9.194;2023-07-16T10:04:43;96443.84;;;26.85;41.22
69411;BME280;56604;48.652;9.194;2023-07-16T10:07:20;96443.22;;;27.08;40.67
69411;BME280;56604;48.652;9.194;2023-07-16T10:09:56;96433.72;;;27.14;41.68
69411;BME280;56604;48.652;9.194;2023-07-16T10:12:23;96425.19;;;28.71;39.06
69411;BME280;56604;48.652;9.194;2023-07-16T10:14:52;96429.16;;;28.77;38.82
69411;BME280;56604;48.652;9.194;2023-07-16T10:17:19;96428.38;;;28.31;40.55
69411;BME280;56604;48.652;9.194;2023-07-16T10:22:18;96432.81;;;28.88;39.06
69411;BME280;56604;48.652;9.194;2023-07-16T10:24:43;96435.38;;;29.31;37.92
69411;BME280;56604;48.652;9.194;2023-07-16T10:27:09;96430.56;;;27.83;39.54
69411;BME280;56604;48.652;9.194;2023-07-16T10:29:34;96425.13;;;27.44;40.71
69411;BME280;56604;48.652;9.194;2023-07-16T10:32:02;96411.25;;;28.46;41.08
69411;BME280;56604;48.652;9.194;2023-07-16T10:34:27;96416.75;;;28.99;39.67
69411;BME280;56604;48.652;9.194;2023-07-16T10:36:53;96412.91;;;29.27;36.88
69411;BME280;56604;48.652;9.194;2023-07-16T10:39:18;96419.59;;;29.06;37.21
69411;BME280;56604;48.652;9.194;2023-07-16T10:41:44;96417.72;;;28.87;38.02
69411;BME280;56604;48.652;9.194;2023-07-16T10:44:13;96419.22;;;28.58;39.10
69411;BME280;56604;48.652;9.194;2023-07-16T10:46:41;96419.19;;;27.19;39.61
69411;BME280;56604;48.652;9.194;2023-07-16T10:49:07;96409.91;;;26.84;41.01
69411;BME280;56604;48.652;9.194;2023-07-16T10:51:33;96394.25;;;27.09;42.49
69411;BME280;56604;48.652;9.194;2023-07-16T10:53:58;96407.63;;;27.18;41.25
69411;BME280;56604;48.652;9.194;2023-07-16T10:56:24;96409.69;;;27.09;41.85
69411;BME280;56604;48.652;9.194;2023-07-16T10:58:49;96416.13;;;27.20;43.31
69411;BME280;56604;48.652;9.194;2023-07-16T11:01:16;96413.16;;;25.58;44.20
69411;BME280;56604;48.652;9.194;2023-07-16T11:03:42;96416.91;;;26.54;44.01
69411;BME280;56604;48.652;9.194;2023-07-16T11:06:08;96419.50;;;26.50;42.14
69411;BME280;56604;48.652;9.194;2023-07-16T11:08:34;96415.19;;;25.89;43.16
69411;BME280;56604;48.652;9.194;2023-07-16T11:10:59;96411.56;;;25.97;43.10
69411;BME280;56604;48.652;9.194;2023-07-16T11:13:29;96407.22;;;27.35;40.88
69411;BME280;56604;48.652;9.194;2023-07-16T11:15:56;96411.69;;;27.28;40.77
69411;BME280;56604;48.652;9.194;2023-07-16T11:18:24;96407.66;;;27.96;40.63
69411;BME280;56604;48.652;9.194;2023-07-16T11:20:53;96414.25;;;26.41;40.30
69411;BME280;56604;48.652;9.194;2023-07-16T11:23:19;96414.72;;;25.99;42.01
69411;BME280;56604;48.652;9.194;2023-07-16T11:25:48;96404.38;;;27.12;44.52
69411;BME280;56604;48.652;9.194;2023-07-16T11:28:14;96406.06;;;27.95;40.50
69411;BME280;56604;48.652;9.194;2023-07-16T11:30:39;96411.94;;;28.20;39.10
69411;BME280;56604;48.652;9.194;2023-07-16T11:33:12;96403.03;;;27.38;40.41
69411;BME280;56604;48.652;9.194;2023-07-16T11:35:39;96409.69;;;25.57;43.21
69411;BME280;56604;48.652;9.194;2023-07-16T11:38:05;96408.88;;;26.73;42.79
69411;BME280;56604;48.652;9.194;2023-07-16T11:40:35;96404.28;;;27.09;42.27
69411;BME280;56604;48.652;9.194;2023-07-16T11:43:09;96386.47;;;27.59;40.62
69411;BME280;56604;48.652;9.194;2023-07-16T11:45:35;96386.28;;;28.10;39.04
69411;BME280;56604;48.652;9.194;2023-07-16T11:48:01;96399.25;;;27.62;40.76
69411;BME280;56604;48.652;9.194;2023-07-16T11:50:28;96395.56;;;26.64;40.70
69411;BME280;56604;48.652;9.194;2023-07-16T11:52:55;96395.25;;;27.17;42.20
69411;BME280;56604;48.652;9.194;2023-07-16T11:55:22;96391.28;;;27.89;41.40
69411;BME280;56604;48.652;9.194;2023-07-16T11:57:47;96390.56;;;27.92;39.54
69411;BME280;56604;48.652;9.194;2023-07-16T12:00:13;96388.53;;;26.60;41.04
69411;BME280;56604;48.652;9.194;2023-07-16T12:02:38;96380.91;;;27.32;42.55
69411;BME280;56604;48.652;9.194;2023-07-16T12:05:04;96382.19;;;27.77;39.76
69411;BME280;56604;48.652;9.194;2023-07-16T12:07:35;96375.00;;;27.46;40.64
69411;BME280;56604;48.652;9.194;2023-07-16T12:10:04;96371.97;;;27.67;41.47
69411;BME280;56604;48.652;9.194;2023-07-16T12:12:30;96375.00;;;27.46;39.33
69411;BME280;56604;48.652;9.194;2023-07-16T12:14:56;96361.78;;;27.22;41.00
69411;BME280;56604;48.652;9.194;2023-07-16T12:17:21;96352.34;;;27.70;39.67
69411;BME280;56604;48.652;9.194;2023-07-16T12:19:47;96364.75;;;26.34;42.38
69411;BME280;56604;48.652;9.194;2023-07-16T12:22:13;96365.22;;;27.03;41.07
69411;BME280;56604;48.652;9.194;2023-07-16T12:24:41;96350.47;;;27.55;41.18
69411;BME280;56604;48.652;9.194;2023-07-16T12:27:06;96356.97;;;27.89;41.30
69411;BME280;56604;48.652;9.194;2023-07-16T12:29:31;96355.53;;;27.76;38.82
69411;BME280;56604;48.652;9.194;2023-07-16T12:31:57;96345.44;;;27.73;39.94
69411;BME280;56604;48.652;9.194;2023-07-16T12:34:22;96347.50;;;27.41;39.66
69411;BME280;56604;48.652;9.194;2023-07-16T12:36:47;96349.84;;;27.23;40.92
69411;BME280;56604;48.652;9.194;2023-07-16T12:39:13;96350.03;;;27.14;40.26
69411;BME280;56604;48.652;9.194;2023-07-16T12:41:38;96346.22;;;26.64;41.10
69411;BME280;56604;48.652;9.194;2023-07-16T12:44:03;96340.47;;;27.36;40.20
69411;BME280;56604;48.652;9.194;2023-07-16T12:46:29;96346.38;;;27.61;40.32
69411;BME280;56604;48.652;9.194;2023-07-16T12:48:54;96341.97;;;27.33;41.60
69411;BME280;56604;48.652;9.194;2023-07-16T12:51:19;96351.06;;;27.64;39.97
69411;BME280;56604;48.652;9.194;2023-07-16T12:53:45;96342.53;;;27.82;39.96
69411;BME280;56604;48.652;9.194;2023-07-16T12:56:10;96346.97;;;28.39;40.25
69411;BME280;56604;48.652;9.194;2023-07-16T12:58:35;96338.59;;;28.21;38.46
69411;BME280;56604;48.652;9.194;2023-07-16T13:01:01;96340.53;;;28.21;40.56
69411;BME280;56604;48.652;9.194;2023-07-16T13:03:27;96343.28;;;28.24;38.96